ARG1785 SARI-SABE
Flight info
| Callsign | ARG1785 |
|---|---|
| Flight time | 1h 36m |
| Altitude | 32000 |
| Route | NAIDE2C NAIDE UT667 GEMSU UN785 GUA UZ129 PAGON PAGON8Q |
| Aircraft | B738/M-MSDFGHILRVW/LB1 |
Departure
| Time | 2026-04-21 19:31 |
|---|---|
| Airport | Cataratas Del Iguazú International Airport (SARI) |
Arrival
| Time | 2026-04-21 21:08 |
|---|---|
| Airport | Aeroparque Jorge Newbery (SABE) |
| Time | Latitude | Longitude | Altitude | Speed | Heading |
|---|---|---|---|---|---|
| 2026-04-21 18:50 | -25.73210 | -54.47709 | 926 ft | 0 kts | 26° |
| 2026-04-21 19:21 | -25.73221 | -54.47715 | 929 ft | 4 kts | 26° |
| 2026-04-21 19:22 | -25.73245 | -54.47725 | 929 ft | 4 kts | 2° |
| 2026-04-21 19:22 | -25.73260 | -54.47719 | 928 ft | 3 kts | 295° |
| 2026-04-21 19:22 | -25.73272 | -54.47692 | 928 ft | 3 kts | 295° |
| 2026-04-21 19:22 | -25.73273 | -54.47688 | 928 ft | 0 kts | 295° |
| 2026-04-21 19:25 | -25.73270 | -54.47696 | 928 ft | 3 kts | 295° |
| 2026-04-21 19:25 | -25.73262 | -54.47715 | 927 ft | 3 kts | 295° |
| 2026-04-21 19:25 | -25.73251 | -54.47740 | 927 ft | 4 kts | 295° |
| 2026-04-21 19:25 | -25.73244 | -54.47757 | 927 ft | 4 kts | 295° |
| 2026-04-21 19:26 | -25.73226 | -54.47799 | 926 ft | 8 kts | 295° |
| 2026-04-21 19:26 | -25.73219 | -54.47840 | 927 ft | 8 kts | 265° |
| 2026-04-21 19:26 | -25.73224 | -54.47902 | 928 ft | 8 kts | 265° |
| 2026-04-21 19:26 | -25.73229 | -54.47963 | 926 ft | 8 kts | 265° |
| 2026-04-21 19:27 | -25.73235 | -54.48040 | 928 ft | 7 kts | 265° |
| 2026-04-21 19:27 | -25.73241 | -54.48114 | 930 ft | 13 kts | 263° |
| 2026-04-21 19:27 | -25.73246 | -54.48176 | 927 ft | 11 kts | 265° |
| 2026-04-21 19:27 | -25.73253 | -54.48255 | 927 ft | 10 kts | 265° |
| 2026-04-21 19:28 | -25.73259 | -54.48333 | 928 ft | 10 kts | 264° |
| 2026-04-21 19:28 | -25.73267 | -54.48411 | 927 ft | 11 kts | 264° |
| 2026-04-21 19:28 | -25.73241 | -54.48510 | 927 ft | 16 kts | 295° |
| 2026-04-21 19:28 | -25.73191 | -54.48629 | 926 ft | 17 kts | 295° |
| 2026-04-21 19:29 | -25.73135 | -54.48738 | 925 ft | 14 kts | 320° |
| 2026-04-21 19:29 | -25.73095 | -54.48801 | 926 ft | 10 kts | 253° |
| 2026-04-21 19:29 | -25.73117 | -54.48806 | 926 ft | 0 kts | 113° |
| 2026-04-21 19:30 | -25.73155 | -54.48716 | 925 ft | 41 kts | 115° |
| 2026-04-21 19:30 | -25.73378 | -54.48181 | 928 ft | 110 kts | 114° |
| 2026-04-21 19:31 | -25.73791 | -54.47201 | 930 ft | 168 kts | 115° |
| 2026-04-21 19:31 | -25.74323 | -54.45969 | 1460 ft | 175 kts | 116° |
| 2026-04-21 19:31 | -25.74869 | -54.44734 | 2150 ft | 183 kts | 113° |
| 2026-04-21 19:31 | -25.75424 | -54.43403 | 2579 ft | 203 kts | 113° |
| 2026-04-21 19:32 | -25.76053 | -54.41929 | 3064 ft | 217 kts | 114° |
| 2026-04-21 19:32 | -25.76691 | -54.40398 | 3684 ft | 220 kts | 113° |
| 2026-04-21 19:32 | -25.77546 | -54.38919 | 4074 ft | 237 kts | 134° |
| 2026-04-21 19:32 | -25.78976 | -54.37923 | 4483 ft | 250 kts | 163° |
| 2026-04-21 19:33 | -25.80746 | -54.37680 | 4869 ft | 268 kts | 185° |
| 2026-04-21 19:33 | -25.82687 | -54.37932 | 5146 ft | 292 kts | 190° |
| 2026-04-21 19:33 | -25.84710 | -54.38225 | 5971 ft | 293 kts | 186° |
| 2026-04-21 19:33 | -25.86772 | -54.38205 | 6711 ft | 298 kts | 178° |
| 2026-04-21 19:34 | -25.88811 | -54.38056 | 7675 ft | 294 kts | 178° |
| 2026-04-21 19:34 | -25.90876 | -54.37878 | 8354 ft | 300 kts | 177° |
| 2026-04-21 19:34 | -25.92945 | -54.37667 | 9232 ft | 299 kts | 176° |
| 2026-04-21 19:34 | -25.95021 | -54.37464 | 10025 ft | 300 kts | 177° |
| 2026-04-21 19:35 | -25.97168 | -54.37251 | 10292 ft | 323 kts | 177° |
| 2026-04-21 19:35 | -26.01913 | -54.36847 | 10846 ft | 357 kts | 179° |
| 2026-04-21 19:35 | -26.04408 | -54.36700 | 11234 ft | 369 kts | 179° |
| 2026-04-21 19:36 | -26.06996 | -54.36506 | 11698 ft | 377 kts | 178° |
| 2026-04-21 19:36 | -26.09631 | -54.36253 | 12234 ft | 383 kts | 176° |
| 2026-04-21 19:36 | -26.12285 | -54.36013 | 12874 ft | 385 kts | 178° |
| 2026-04-21 19:36 | -26.14955 | -54.35806 | 13576 ft | 385 kts | 178° |
| 2026-04-21 19:37 | -26.17656 | -54.35580 | 14065 ft | 390 kts | 178° |
| 2026-04-21 19:37 | -26.20382 | -54.35338 | 14610 ft | 391 kts | 178° |
| 2026-04-21 19:37 | -26.23114 | -54.35081 | 15095 ft | 395 kts | 178° |
| 2026-04-21 19:37 | -26.25838 | -54.34974 | 15715 ft | 393 kts | 187° |
| 2026-04-21 19:38 | -26.28504 | -54.35547 | 16293 ft | 388 kts | 200° |
| 2026-04-21 19:38 | -26.31017 | -54.36700 | 16663 ft | 390 kts | 210° |
| 2026-04-21 19:38 | -26.33425 | -54.38096 | 17271 ft | 390 kts | 209° |
| 2026-04-21 19:38 | -26.35989 | -54.39143 | 17916 ft | 391 kts | 198° |
| 2026-04-21 19:39 | -26.38587 | -54.40002 | 18488 ft | 392 kts | 202° |
| 2026-04-21 19:39 | -26.41076 | -54.41310 | 18624 ft | 399 kts | 214° |
| 2026-04-21 19:39 | -26.43313 | -54.43145 | 18941 ft | 401 kts | 223° |
| 2026-04-21 19:39 | -26.45425 | -54.45189 | 19379 ft | 402 kts | 224° |
| 2026-04-21 19:40 | -26.47526 | -54.47252 | 19823 ft | 403 kts | 224° |
| 2026-04-21 19:40 | -26.49608 | -54.49300 | 20255 ft | 404 kts | 224° |
| 2026-04-21 19:40 | -26.51727 | -54.51378 | 20655 ft | 406 kts | 224° |
| 2026-04-21 19:40 | -26.53868 | -54.53468 | 21046 ft | 408 kts | 224° |
| 2026-04-21 19:41 | -26.56018 | -54.55559 | 21425 ft | 411 kts | 224° |
| 2026-04-21 19:41 | -26.58180 | -54.57657 | 21812 ft | 413 kts | 224° |
| 2026-04-21 19:41 | -26.60352 | -54.59763 | 22200 ft | 415 kts | 224° |
| 2026-04-21 19:41 | -26.62546 | -54.61890 | 22587 ft | 417 kts | 224° |
| 2026-04-21 19:42 | -26.64739 | -54.64015 | 22970 ft | 418 kts | 224° |
| 2026-04-21 19:42 | -26.66944 | -54.66152 | 23308 ft | 421 kts | 225° |
| 2026-04-21 19:42 | -26.69160 | -54.68302 | 23640 ft | 423 kts | 225° |
| 2026-04-21 19:42 | -26.71384 | -54.70461 | 23932 ft | 424 kts | 225° |
| 2026-04-21 19:43 | -26.73615 | -54.72627 | 24239 ft | 425 kts | 225° |
| 2026-04-21 19:43 | -26.75823 | -54.74772 | 24556 ft | 425 kts | 225° |
| 2026-04-21 19:43 | -26.78069 | -54.76955 | 24860 ft | 426 kts | 225° |
| 2026-04-21 19:43 | -26.80309 | -54.79134 | 25153 ft | 427 kts | 225° |
| 2026-04-21 19:44 | -26.82554 | -54.81319 | 25436 ft | 428 kts | 225° |
| 2026-04-21 19:44 | -26.84805 | -54.83511 | 25723 ft | 429 kts | 225° |
| 2026-04-21 19:44 | -26.87060 | -54.85709 | 25988 ft | 430 kts | 225° |
| 2026-04-21 19:44 | -26.89323 | -54.87916 | 26260 ft | 431 kts | 225° |
| 2026-04-21 19:45 | -26.91591 | -54.90129 | 26540 ft | 432 kts | 225° |
| 2026-04-21 19:45 | -26.93860 | -54.92343 | 26809 ft | 433 kts | 225° |
| 2026-04-21 19:45 | -26.96128 | -54.94558 | 27048 ft | 434 kts | 225° |
| 2026-04-21 19:45 | -26.98405 | -54.96783 | 27337 ft | 434 kts | 225° |
| 2026-04-21 19:46 | -27.00649 | -54.98976 | 27715 ft | 431 kts | 225° |
| 2026-04-21 19:46 | -27.02904 | -55.01179 | 28163 ft | 428 kts | 225° |
| 2026-04-21 19:46 | -27.05139 | -55.03365 | 28617 ft | 424 kts | 226° |
| 2026-04-21 19:46 | -27.07357 | -55.05536 | 29015 ft | 422 kts | 226° |
| 2026-04-21 19:47 | -27.09568 | -55.07703 | 29336 ft | 422 kts | 226° |
| 2026-04-21 19:47 | -27.11769 | -55.09862 | 29705 ft | 420 kts | 226° |
| 2026-04-21 19:47 | -27.13969 | -55.12020 | 30127 ft | 418 kts | 226° |
| 2026-04-21 19:47 | -27.16151 | -55.14162 | 30458 ft | 415 kts | 226° |
| 2026-04-21 19:48 | -27.18325 | -55.16296 | 30788 ft | 413 kts | 226° |
| 2026-04-21 19:48 | -27.20483 | -55.18416 | 31120 ft | 411 kts | 226° |
| 2026-04-21 19:48 | -27.22632 | -55.20529 | 31440 ft | 410 kts | 226° |
| 2026-04-21 19:48 | -27.24774 | -55.22637 | 31756 ft | 409 kts | 226° |
| 2026-04-21 19:49 | -27.26911 | -55.24740 | 32010 ft | 408 kts | 226° |
| 2026-04-21 19:49 | -27.31189 | -55.28954 | 32001 ft | 407 kts | 226° |
| 2026-04-21 19:50 | -27.34712 | -55.32427 | 32012 ft | 404 kts | 226° |
| 2026-04-21 19:50 | -27.39622 | -55.37274 | 32003 ft | 403 kts | 227° |
| 2026-04-21 19:51 | -27.43839 | -55.41441 | 32007 ft | 403 kts | 227° |
| 2026-04-21 19:51 | -27.48039 | -55.45596 | 32004 ft | 403 kts | 227° |
| 2026-04-21 19:52 | -27.52250 | -55.49765 | 32005 ft | 403 kts | 227° |
| 2026-04-21 19:52 | -27.56461 | -55.53941 | 32006 ft | 404 kts | 227° |
| 2026-04-21 19:53 | -27.60695 | -55.58137 | 32007 ft | 405 kts | 226° |
| 2026-04-21 19:53 | -27.65280 | -55.61872 | 32006 ft | 410 kts | 220° |
| 2026-04-21 19:54 | -27.70068 | -55.65398 | 32002 ft | 411 kts | 220° |
| 2026-04-21 19:54 | -27.74849 | -55.68936 | 31995 ft | 411 kts | 220° |
| 2026-04-21 19:55 | -27.79606 | -55.72492 | 32000 ft | 410 kts | 220° |
| 2026-04-21 19:55 | -27.84350 | -55.76059 | 32000 ft | 409 kts | 220° |
| 2026-04-21 19:56 | -27.89099 | -55.79638 | 31993 ft | 409 kts | 220° |
| 2026-04-21 19:56 | -27.93813 | -55.83194 | 31996 ft | 409 kts | 220° |
| 2026-04-21 19:57 | -27.98545 | -55.86767 | 31990 ft | 408 kts | 220° |
| 2026-04-21 19:57 | -28.03265 | -55.90336 | 31993 ft | 407 kts | 220° |
| 2026-04-21 19:58 | -28.07936 | -55.93870 | 31998 ft | 406 kts | 221° |
| 2026-04-21 19:58 | -28.12628 | -55.97424 | 31995 ft | 405 kts | 221° |
| 2026-04-21 19:59 | -28.17314 | -56.00978 | 31992 ft | 405 kts | 221° |
| 2026-04-21 19:59 | -28.22002 | -56.04538 | 32021 ft | 405 kts | 221° |
| 2026-04-21 20:00 | -28.26686 | -56.08098 | 32001 ft | 405 kts | 221° |
| 2026-04-21 20:00 | -28.31340 | -56.11639 | 31987 ft | 405 kts | 221° |
| 2026-04-21 20:01 | -28.36021 | -56.15204 | 31987 ft | 405 kts | 221° |
| 2026-04-21 20:01 | -28.40706 | -56.18776 | 31999 ft | 405 kts | 221° |
| 2026-04-21 20:02 | -28.44593 | -56.21743 | 31982 ft | 405 kts | 221° |
| 2026-04-21 20:02 | -28.50050 | -56.25912 | 31986 ft | 404 kts | 221° |
| 2026-04-21 20:03 | -28.54695 | -56.29466 | 32001 ft | 404 kts | 221° |
| 2026-04-21 20:03 | -28.59370 | -56.33046 | 31998 ft | 405 kts | 221° |
| 2026-04-21 20:04 | -28.64044 | -56.36629 | 31995 ft | 405 kts | 221° |
| 2026-04-21 20:04 | -28.68690 | -56.40195 | 31998 ft | 405 kts | 221° |
| 2026-04-21 20:05 | -28.73366 | -56.43787 | 31994 ft | 405 kts | 221° |
| 2026-04-21 20:05 | -28.78001 | -56.47352 | 31990 ft | 405 kts | 221° |
| 2026-04-21 20:06 | -28.82677 | -56.50953 | 31991 ft | 405 kts | 221° |
| 2026-04-21 20:06 | -28.87347 | -56.54553 | 32002 ft | 405 kts | 221° |
| 2026-04-21 20:07 | -28.92029 | -56.58165 | 32003 ft | 405 kts | 221° |
| 2026-04-21 20:07 | -28.95912 | -56.61163 | 31996 ft | 406 kts | 221° |
| 2026-04-21 20:08 | -29.01379 | -56.65390 | 31992 ft | 406 kts | 222° |
| 2026-04-21 20:08 | -29.06048 | -56.69005 | 31995 ft | 405 kts | 222° |
| 2026-04-21 20:09 | -29.10690 | -56.72602 | 31997 ft | 405 kts | 222° |
| 2026-04-21 20:09 | -29.15346 | -56.76215 | 32014 ft | 404 kts | 222° |
| 2026-04-21 20:10 | -29.20006 | -56.79835 | 31999 ft | 404 kts | 222° |
| 2026-04-21 20:10 | -29.24671 | -56.83464 | 31997 ft | 404 kts | 222° |
| 2026-04-21 20:11 | -29.29323 | -56.87086 | 32001 ft | 404 kts | 222° |
| 2026-04-21 20:11 | -29.33975 | -56.90711 | 31990 ft | 404 kts | 222° |
| 2026-04-21 20:12 | -29.38591 | -56.94314 | 31996 ft | 404 kts | 222° |
| 2026-04-21 20:12 | -29.42478 | -56.97350 | 32004 ft | 404 kts | 222° |
| 2026-04-21 20:13 | -29.47878 | -57.01573 | 31994 ft | 404 kts | 222° |
| 2026-04-21 20:13 | -29.51765 | -57.04616 | 32000 ft | 404 kts | 222° |
| 2026-04-21 20:14 | -29.56405 | -57.08253 | 31999 ft | 404 kts | 222° |
| 2026-04-21 20:14 | -29.61029 | -57.11880 | 32007 ft | 404 kts | 222° |
| 2026-04-21 20:15 | -29.65678 | -57.15533 | 31995 ft | 405 kts | 223° |
| 2026-04-21 20:15 | -29.70332 | -57.19192 | 32001 ft | 405 kts | 223° |
| 2026-04-21 20:16 | -29.74979 | -57.22850 | 32003 ft | 404 kts | 223° |
| 2026-04-21 20:16 | -29.79628 | -57.26515 | 32006 ft | 405 kts | 223° |
| 2026-04-21 20:17 | -29.84241 | -57.30155 | 32003 ft | 405 kts | 223° |
| 2026-04-21 20:17 | -29.88889 | -57.33826 | 32001 ft | 404 kts | 223° |
| 2026-04-21 20:18 | -29.93531 | -57.37498 | 32005 ft | 404 kts | 223° |
| 2026-04-21 20:18 | -29.98172 | -57.41173 | 32000 ft | 405 kts | 223° |
| 2026-04-21 20:19 | -30.02812 | -57.44852 | 32001 ft | 405 kts | 223° |
| 2026-04-21 20:19 | -30.07453 | -57.48535 | 32027 ft | 405 kts | 223° |
| 2026-04-21 20:20 | -30.12079 | -57.52211 | 32012 ft | 405 kts | 223° |
| 2026-04-21 20:20 | -30.16726 | -57.55908 | 32001 ft | 405 kts | 223° |
| 2026-04-21 20:21 | -30.21375 | -57.59611 | 32000 ft | 405 kts | 223° |
| 2026-04-21 20:21 | -30.26089 | -57.63203 | 31989 ft | 411 kts | 217° |
| 2026-04-21 20:22 | -30.31532 | -57.65626 | 32015 ft | 425 kts | 206° |
| 2026-04-21 20:22 | -30.40057 | -57.68513 | 32003 ft | 425 kts | 206° |
| 2026-04-21 20:23 | -30.45730 | -57.70471 | 31998 ft | 424 kts | 207° |
| 2026-04-21 20:23 | -30.51347 | -57.72431 | 31998 ft | 424 kts | 207° |
| 2026-04-21 20:24 | -30.56999 | -57.74409 | 31995 ft | 423 kts | 207° |
| 2026-04-21 20:24 | -30.62645 | -57.76387 | 31996 ft | 423 kts | 207° |
| 2026-04-21 20:25 | -30.68285 | -57.78363 | 32003 ft | 423 kts | 207° |
| 2026-04-21 20:25 | -30.73927 | -57.80333 | 31998 ft | 423 kts | 207° |
| 2026-04-21 20:26 | -30.79529 | -57.82282 | 32000 ft | 422 kts | 207° |
| 2026-04-21 20:26 | -30.85161 | -57.84244 | 31999 ft | 422 kts | 207° |
| 2026-04-21 20:27 | -30.90783 | -57.86207 | 32017 ft | 422 kts | 207° |
| 2026-04-21 20:27 | -30.96409 | -57.88175 | 32005 ft | 422 kts | 207° |
| 2026-04-21 20:28 | -31.02025 | -57.90142 | 31998 ft | 422 kts | 207° |
| 2026-04-21 20:28 | -31.07649 | -57.92113 | 32002 ft | 422 kts | 207° |
| 2026-04-21 20:29 | -31.13280 | -57.94091 | 31994 ft | 422 kts | 207° |
| 2026-04-21 20:29 | -31.18872 | -57.96057 | 32003 ft | 423 kts | 207° |
| 2026-04-21 20:30 | -31.24519 | -57.98044 | 31989 ft | 423 kts | 207° |
| 2026-04-21 20:30 | -31.30153 | -58.00029 | 31994 ft | 423 kts | 207° |
| 2026-04-21 20:31 | -31.35796 | -58.02019 | 31991 ft | 423 kts | 207° |
| 2026-04-21 20:31 | -31.41443 | -58.04013 | 31991 ft | 423 kts | 207° |
| 2026-04-21 20:32 | -31.47092 | -58.06011 | 32003 ft | 424 kts | 207° |
| 2026-04-21 20:32 | -31.52743 | -58.08012 | 31997 ft | 424 kts | 207° |
| 2026-04-21 20:33 | -31.58356 | -58.10002 | 31999 ft | 424 kts | 207° |
| 2026-04-21 20:33 | -31.64001 | -58.12006 | 32002 ft | 424 kts | 207° |
| 2026-04-21 20:34 | -31.69653 | -58.14015 | 32029 ft | 424 kts | 207° |
| 2026-04-21 20:34 | -31.75298 | -58.16024 | 32020 ft | 424 kts | 207° |
| 2026-04-21 20:35 | -31.80946 | -58.18037 | 32016 ft | 424 kts | 207° |
| 2026-04-21 20:35 | -31.86593 | -58.20051 | 32010 ft | 424 kts | 207° |
| 2026-04-21 20:36 | -31.92208 | -58.22057 | 32015 ft | 424 kts | 207° |
| 2026-04-21 20:36 | -31.97852 | -58.24077 | 32017 ft | 424 kts | 207° |
| 2026-04-21 20:37 | -32.03501 | -58.26100 | 32012 ft | 424 kts | 207° |
| 2026-04-21 20:37 | -32.09149 | -58.28126 | 32010 ft | 423 kts | 207° |
| 2026-04-21 20:38 | -32.14787 | -58.30150 | 32010 ft | 423 kts | 207° |
| 2026-04-21 20:38 | -32.20421 | -58.32176 | 32011 ft | 423 kts | 207° |
| 2026-04-21 20:39 | -32.26011 | -58.34190 | 32008 ft | 422 kts | 207° |
| 2026-04-21 20:39 | -32.31635 | -58.36217 | 32011 ft | 422 kts | 207° |
| 2026-04-21 20:40 | -32.37226 | -58.38234 | 32011 ft | 422 kts | 207° |
| 2026-04-21 20:40 | -32.42851 | -58.40265 | 32012 ft | 422 kts | 207° |
| 2026-04-21 20:41 | -32.48395 | -58.42259 | 31954 ft | 408 kts | 207° |
| 2026-04-21 20:41 | -32.51106 | -58.43235 | 31582 ft | 402 kts | 207° |
| 2026-04-21 20:41 | -32.53768 | -58.44197 | 31194 ft | 398 kts | 207° |
| 2026-04-21 20:42 | -32.56408 | -58.45155 | 30814 ft | 395 kts | 207° |
| 2026-04-21 20:42 | -32.59023 | -58.46106 | 30431 ft | 392 kts | 207° |
| 2026-04-21 20:42 | -32.61625 | -58.47054 | 30032 ft | 390 kts | 207° |
| 2026-04-21 20:42 | -32.64222 | -58.48000 | 29585 ft | 388 kts | 207° |
| 2026-04-21 20:43 | -32.66795 | -58.48935 | 29148 ft | 385 kts | 207° |
| 2026-04-21 20:43 | -32.69316 | -58.49851 | 28739 ft | 381 kts | 207° |
| 2026-04-21 20:43 | -32.71872 | -58.50781 | 28363 ft | 378 kts | 207° |
| 2026-04-21 20:43 | -32.74378 | -58.51693 | 27954 ft | 375 kts | 207° |
| 2026-04-21 20:44 | -32.76828 | -58.52585 | 27568 ft | 372 kts | 207° |
| 2026-04-21 20:44 | -32.79303 | -58.53488 | 27183 ft | 369 kts | 207° |
| 2026-04-21 20:44 | -32.81744 | -58.54379 | 26791 ft | 366 kts | 207° |
| 2026-04-21 20:44 | -32.84179 | -58.55268 | 26421 ft | 364 kts | 207° |
| 2026-04-21 20:45 | -32.86594 | -58.56150 | 26050 ft | 361 kts | 207° |
| 2026-04-21 20:45 | -32.88990 | -58.57026 | 25678 ft | 359 kts | 207° |
| 2026-04-21 20:45 | -32.91376 | -58.57899 | 25319 ft | 357 kts | 207° |
| 2026-04-21 20:45 | -32.93740 | -58.58765 | 24954 ft | 355 kts | 207° |
| 2026-04-21 20:46 | -32.96068 | -58.59617 | 24597 ft | 353 kts | 207° |
| 2026-04-21 20:46 | -32.98411 | -58.60475 | 24239 ft | 352 kts | 207° |
| 2026-04-21 20:46 | -33.00769 | -58.61307 | 23852 ft | 355 kts | 203° |
| 2026-04-21 20:46 | -33.03239 | -58.61772 | 23494 ft | 361 kts | 196° |
| 2026-04-21 20:47 | -33.05747 | -58.62063 | 23077 ft | 361 kts | 195° |
| 2026-04-21 20:47 | -33.08245 | -58.62327 | 22687 ft | 359 kts | 194° |
| 2026-04-21 20:47 | -33.10692 | -58.62584 | 22325 ft | 357 kts | 194° |
| 2026-04-21 20:47 | -33.13193 | -58.62854 | 21960 ft | 355 kts | 194° |
| 2026-04-21 20:48 | -33.15617 | -58.63122 | 21604 ft | 354 kts | 194° |
| 2026-04-21 20:48 | -33.18059 | -58.63398 | 21255 ft | 352 kts | 194° |
| 2026-04-21 20:48 | -33.20495 | -58.63676 | 20918 ft | 350 kts | 194° |
| 2026-04-21 20:48 | -33.22902 | -58.63951 | 20660 ft | 346 kts | 195° |
| 2026-04-21 20:49 | -33.25300 | -58.64229 | 20306 ft | 345 kts | 194° |
| 2026-04-21 20:49 | -33.27684 | -58.64506 | 19963 ft | 344 kts | 194° |
| 2026-04-21 20:49 | -33.30065 | -58.64783 | 19621 ft | 343 kts | 194° |
| 2026-04-21 20:49 | -33.32433 | -58.65059 | 19288 ft | 341 kts | 194° |
| 2026-04-21 20:50 | -33.34798 | -58.65335 | 18947 ft | 341 kts | 194° |
| 2026-04-21 20:50 | -33.37156 | -58.65610 | 18589 ft | 341 kts | 194° |
| 2026-04-21 20:50 | -33.39516 | -58.65886 | 18245 ft | 340 kts | 194° |
| 2026-04-21 20:50 | -33.41870 | -58.66161 | 17860 ft | 339 kts | 193° |
| 2026-04-21 20:51 | -33.44188 | -58.66431 | 17507 ft | 338 kts | 193° |
| 2026-04-21 20:51 | -33.46523 | -58.66703 | 17158 ft | 336 kts | 193° |
| 2026-04-21 20:51 | -33.48848 | -58.66974 | 16813 ft | 335 kts | 193° |
| 2026-04-21 20:51 | -33.51157 | -58.67243 | 16473 ft | 333 kts | 193° |
| 2026-04-21 20:52 | -33.53462 | -58.67512 | 16138 ft | 331 kts | 193° |
| 2026-04-21 20:52 | -33.55747 | -58.67780 | 15808 ft | 330 kts | 193° |
| 2026-04-21 20:52 | -33.58028 | -58.68047 | 15473 ft | 328 kts | 193° |
| 2026-04-21 20:52 | -33.60297 | -58.68312 | 15147 ft | 327 kts | 193° |
| 2026-04-21 20:53 | -33.62552 | -58.68577 | 14819 ft | 325 kts | 193° |
| 2026-04-21 20:53 | -33.64809 | -58.68842 | 14488 ft | 324 kts | 193° |
| 2026-04-21 20:53 | -33.67055 | -58.69105 | 14162 ft | 323 kts | 193° |
| 2026-04-21 20:53 | -33.69291 | -58.69368 | 13843 ft | 323 kts | 193° |
| 2026-04-21 20:54 | -33.71532 | -58.69632 | 13450 ft | 323 kts | 193° |
| 2026-04-21 20:54 | -33.73765 | -58.69894 | 13100 ft | 322 kts | 193° |
| 2026-04-21 20:54 | -33.75963 | -58.70152 | 12775 ft | 320 kts | 193° |
| 2026-04-21 20:54 | -33.78199 | -58.70415 | 12442 ft | 318 kts | 192° |
| 2026-04-21 20:55 | -33.80368 | -58.70670 | 12124 ft | 317 kts | 192° |
| 2026-04-21 20:55 | -33.82571 | -58.70929 | 11797 ft | 315 kts | 192° |
| 2026-04-21 20:55 | -33.84738 | -58.71185 | 11475 ft | 313 kts | 192° |
| 2026-04-21 20:55 | -33.86902 | -58.71440 | 11149 ft | 312 kts | 192° |
| 2026-04-21 20:56 | -33.89082 | -58.71697 | 10833 ft | 310 kts | 192° |
| 2026-04-21 20:56 | -33.91194 | -58.71946 | 10516 ft | 308 kts | 192° |
| 2026-04-21 20:56 | -33.93325 | -58.72189 | 10267 ft | 305 kts | 191° |
| 2026-04-21 20:56 | -33.95402 | -58.72402 | 10155 ft | 296 kts | 191° |
| 2026-04-21 20:57 | -33.97429 | -58.72605 | 10041 ft | 288 kts | 191° |
| 2026-04-21 20:57 | -33.99403 | -58.72804 | 9829 ft | 284 kts | 191° |
| 2026-04-21 20:57 | -34.01370 | -58.73005 | 9545 ft | 282 kts | 191° |
| 2026-04-21 20:57 | -34.03315 | -58.73206 | 9266 ft | 280 kts | 191° |
| 2026-04-21 20:58 | -34.05250 | -58.73405 | 8986 ft | 278 kts | 190° |
| 2026-04-21 20:58 | -34.07170 | -58.73604 | 8711 ft | 276 kts | 190° |
| 2026-04-21 20:58 | -34.09078 | -58.73801 | 8421 ft | 275 kts | 190° |
| 2026-04-21 20:58 | -34.10980 | -58.73997 | 8162 ft | 273 kts | 190° |
| 2026-04-21 20:59 | -34.12875 | -58.74194 | 7888 ft | 272 kts | 189° |
| 2026-04-21 20:59 | -34.14753 | -58.74388 | 7636 ft | 271 kts | 189° |
| 2026-04-21 20:59 | -34.16608 | -58.74580 | 7365 ft | 270 kts | 189° |
| 2026-04-21 20:59 | -34.18484 | -58.74774 | 7102 ft | 270 kts | 189° |
| 2026-04-21 21:00 | -34.20354 | -58.74968 | 6837 ft | 269 kts | 189° |
| 2026-04-21 21:00 | -34.22226 | -58.75162 | 6554 ft | 269 kts | 188° |
| 2026-04-21 21:00 | -34.23462 | -58.75291 | 6368 ft | 269 kts | 188° |
| 2026-04-21 21:00 | -34.25326 | -58.75484 | 6085 ft | 269 kts | 188° |
| 2026-04-21 21:01 | -34.27194 | -58.75677 | 5806 ft | 268 kts | 188° |
| 2026-04-21 21:01 | -34.29055 | -58.75870 | 5514 ft | 268 kts | 188° |
| 2026-04-21 21:01 | -34.30908 | -58.76052 | 5241 ft | 268 kts | 185° |
| 2026-04-21 21:01 | -34.32731 | -58.75596 | 4944 ft | 273 kts | 152° |
| 2026-04-21 21:02 | -34.34206 | -58.74162 | 4724 ft | 271 kts | 135° |
| 2026-04-21 21:02 | -34.35516 | -58.72521 | 4446 ft | 271 kts | 134° |
| 2026-04-21 21:02 | -34.36810 | -58.70868 | 4181 ft | 270 kts | 134° |
| 2026-04-21 21:02 | -34.38108 | -58.69218 | 3914 ft | 270 kts | 134° |
| 2026-04-21 21:03 | -34.39410 | -58.67580 | 3680 ft | 268 kts | 134° |
| 2026-04-21 21:03 | -34.40685 | -58.65986 | 3558 ft | 260 kts | 135° |
| 2026-04-21 21:03 | -34.41924 | -58.64441 | 3436 ft | 252 kts | 135° |
| 2026-04-21 21:03 | -34.43110 | -58.62963 | 3334 ft | 243 kts | 134° |
| 2026-04-21 21:04 | -34.44273 | -58.61512 | 3222 ft | 237 kts | 135° |
| 2026-04-21 21:04 | -34.45426 | -58.60075 | 3054 ft | 238 kts | 135° |
| 2026-04-21 21:04 | -34.46521 | -58.58578 | 2989 ft | 241 kts | 127° |
| 2026-04-21 21:04 | -34.47481 | -58.56862 | 2743 ft | 249 kts | 123° |
| 2026-04-21 21:05 | -34.48435 | -58.55093 | 2419 ft | 252 kts | 124° |
| 2026-04-21 21:05 | -34.49400 | -58.53343 | 2101 ft | 245 kts | 125° |
| 2026-04-21 21:05 | -34.50324 | -58.51678 | 1758 ft | 230 kts | 126° |
| 2026-04-21 21:05 | -34.51183 | -58.50128 | 1494 ft | 213 kts | 126° |
| 2026-04-21 21:06 | -34.51979 | -58.48694 | 1222 ft | 197 kts | 126° |
| 2026-04-21 21:06 | -34.52701 | -58.47391 | 971 ft | 177 kts | 125° |
| 2026-04-21 21:06 | -34.53358 | -58.46209 | 786 ft | 160 kts | 125° |
| 2026-04-21 21:06 | -34.53937 | -58.45142 | 624 ft | 146 kts | 124° |
| 2026-04-21 21:07 | -34.54511 | -58.44107 | 361 ft | 147 kts | 128° |
| 2026-04-21 21:07 | -34.55093 | -58.43068 | 163 ft | 148 kts | 126° |
| 2026-04-21 21:07 | -34.55640 | -58.42080 | 27 ft | 129 kts | 127° |
| 2026-04-21 21:07 | -34.56028 | -58.41395 | 28 ft | 69 kts | 124° |
| 2026-04-21 21:08 | -34.56139 | -58.41195 | 28 ft | 18 kts | 124° |
| 2026-04-21 21:08 | -34.56190 | -58.41076 | 26 ft | 14 kts | 86° |
| 2026-04-21 21:08 | -34.56165 | -58.41010 | 27 ft | 4 kts | 59° |
| 2026-04-21 21:08 | -34.56155 | -58.40990 | 24 ft | 0 kts | 59° |
| 2026-04-21 21:09 | -34.56154 | -58.40988 | 24 ft | 1 kts | 59° |
| 2026-04-21 21:09 | -34.56149 | -58.40979 | 27 ft | 1 kts | 45° |
| 2026-04-21 21:09 | -34.56146 | -58.40974 | 27 ft | 1 kts | 58° |
| 2026-04-21 21:09 | -34.56146 | -58.40963 | 27 ft | 2 kts | 88° |
| 2026-04-21 21:10 | -34.56146 | -58.40944 | 25 ft | 2 kts | 93° |
| 2026-04-21 21:10 | -34.56145 | -58.40921 | 28 ft | 3 kts | 74° |
| 2026-04-21 21:10 | -34.56130 | -58.40899 | 27 ft | 4 kts | 38° |
| 2026-04-21 21:10 | -34.56107 | -58.40876 | 27 ft | 4 kts | 39° |
| 2026-04-21 21:11 | -34.56084 | -58.40855 | 24 ft | 3 kts | 38° |
| 2026-04-21 21:11 | -34.56079 | -58.40850 | 24 ft | 0 kts | 38° |